Time;durP1;ratioP1;P1;durP2;ratioP2;P2;SDS_P1;SDS_P2;PMS_P1;PMS_P2;Temp;Humidity;BMP_temperature;BMP_pressure;BME280_temperature;BME280_humidity;BME280_pressure;Samples;Min_cycle;Max_cycle;Signal;HPM_P1;HPM_P2
2022/09/17 00:00:42;;;;;;;3.30;1.53;;;;;22.00;100086.00;;;;2079965;28;20209;-52
2022/09/17 00:01:42;;;;;;;3.20;1.73;;;;;22.00;100086.00;;;;2080040;28;20244;-52
2022/09/17 00:02:44;;;;;;;2.67;1.30;;;;;22.00;100101.00;;;;2080056;28;20574;-52
2022/09/17 00:03:53;;;;;;;2.65;1.25;;;;;22.00;100084.00;;;;2080450;28;20703;-53
2022/09/17 00:04:54;;;;;;;3.05;1.50;;;;;22.00;100078.00;;;;2080156;28;20224;-52
2022/09/17 00:06:05;;;;;;;3.70;1.60;;;;;22.00;100080.00;;;;2072456;28;20210;-52
2022/09/17 00:07:06;;;;;;;3.25;1.45;;;;;22.00;100082.00;;;;2072030;28;20236;-52
2022/09/17 00:08:08;;;;;;;3.30;1.67;;;;;22.00;100089.00;;;;2071382;28;20213;-52
2022/09/17 00:09:08;;;;;;;3.38;1.58;;;;;21.90;100088.00;;;;2070822;28;20450;-52
2022/09/17 00:10:09;;;;;;;4.83;1.87;;;;;21.90;100090.00;;;;2071219;28;20215;-52
2022/09/17 00:11:15;;;;;;;3.90;1.33;;;;;21.90;100076.00;;;;2071970;28;20216;-52
2022/09/17 00:12:15;;;;;;;2.50;1.00;;;;;22.00;100090.00;;;;2076872;28;20264;-52
2022/09/17 00:13:16;;;;;;;3.53;1.50;;;;;21.90;100096.00;;;;2080333;28;22629;-52
2022/09/17 00:14:16;;;;;;;2.80;1.60;;;;;21.90;100088.00;;;;2073595;28;20251;-52
2022/09/17 00:15:17;;;;;;;3.67;1.40;;;;;21.90;100086.00;;;;2079419;28;20228;-52
2022/09/17 00:16:27;;;;;;;3.03;1.27;;;;;21.90;100088.00;;;;2080335;28;20689;-52
2022/09/17 00:17:27;;;;;;;3.67;1.17;;;;;21.90;100094.00;;;;2079286;28;20213;-52
2022/09/17 00:18:27;;;;;;;2.20;1.13;;;;;21.90;100087.00;;;;2077798;28;20289;-52
2022/09/17 00:19:28;;;;;;;2.10;1.10;;;;;21.90;100092.00;;;;2079958;28;20210;-54
2022/09/17 00:20:28;;;;;;;4.07;1.47;;;;;21.90;100101.00;;;;2079798;28;20252;-54
2022/09/17 00:21:28;;;;;;;2.07;1.10;;;;;21.90;100102.00;;;;2080193;28;20581;-54
2022/09/17 00:22:29;;;;;;;2.30;1.40;;;;;21.90;100091.00;;;;2080011;28;20647;-54
2022/09/17 00:23:29;;;;;;;3.03;1.33;;;;;21.90;100091.00;;;;2080143;28;20209;-52
2022/09/17 00:24:29;;;;;;;2.30;1.10;;;;;21.90;100093.00;;;;2080117;28;20232;-53
2022/09/17 00:25:30;;;;;;;2.47;0.90;;;;;21.90;100096.00;;;;2079929;28;20667;-52
2022/09/17 00:26:30;;;;;;;4.03;1.47;;;;;21.90;100105.00;;;;2080098;28;20622;-52
2022/09/17 00:27:31;;;;;;;2.30;1.00;;;;;21.90;100095.00;;;;2078952;28;20870;-53
2022/09/17 00:28:31;;;;;;;3.27;1.60;;;;;21.90;100100.00;;;;2080120;28;20713;-52
2022/09/17 00:29:32;;;;;;;2.60;1.20;;;;;21.90;100095.00;;;;2080046;28;20248;-52
2022/09/17 00:30:32;;;;;;;2.87;1.50;;;;;21.90;100110.00;;;;2079983;28;20222;-52
2022/09/17 00:31:33;;;;;;;3.47;1.60;;;;;21.90;100091.00;;;;2080030;28;20221;-53
2022/09/17 00:32:33;;;;;;;3.77;1.53;;;;;21.90;100093.00;;;;2079345;28;20228;-52
2022/09/17 00:33:33;;;;;;;4.33;1.50;;;;;21.90;100084.00;;;;2079473;28;20271;-52
2022/09/17 00:34:34;;;;;;;3.70;1.63;;;;;21.90;100093.00;;;;2079273;28;20213;-52
2022/09/17 00:35:34;;;;;;;3.07;1.40;;;;;21.90;100082.00;;;;2079149;28;20214;-52
2022/09/17 00:36:35;;;;;;;4.80;1.63;;;;;21.90;100088.00;;;;2080131;28;20221;-52
2022/09/17 00:37:35;;;;;;;2.07;1.10;;;;;21.90;100086.00;;;;2078981;28;20222;-52
2022/09/17 00:38:35;;;;;;;3.60;1.50;;;;;21.90;100083.00;;;;2080245;28;20206;-52
2022/09/17 00:39:36;;;;;;;5.67;1.27;;;;;21.90;100091.00;;;;2080006;28;20220;-52
2022/09/17 00:40:36;;;;;;;2.87;1.20;;;;;21.90;100092.00;;;;2079769;28;20218;-52
2022/09/17 00:41:37;;;;;;;2.30;0.97;;;;;21.90;100091.00;;;;2080204;28;20214;-52
2022/09/17 00:42:37;;;;;;;2.77;0.90;;;;;21.80;100081.00;;;;2079746;28;20209;-52
2022/09/17 00:43:40;;;;;;;3.20;1.33;;;;;21.80;100094.00;;;;2079852;28;20210;-52
2022/09/17 00:44:51;;;;;;;2.72;1.20;;;;;21.90;100085.00;;;;2080050;28;20232;-52
2022/09/17 00:45:52;;;;;;;2.20;0.95;;;;;21.90;100092.00;;;;2079850;28;20235;-52
2022/09/17 00:46:53;;;;;;;3.38;1.00;;;;;21.90;100086.00;;;;2063137;28;20217;-52
2022/09/17 00:48:04;;;;;;;2.83;1.40;;;;;21.90;100092.00;;;;2062119;28;20215;-52
2022/09/17 00:49:23;;;;;;;3.97;1.20;;;;;21.80;100086.00;;;;2070488;28;20708;-52
2022/09/17 00:50:37;;;;;;;2.80;1.17;;;;;21.80;100064.00;;;;2060411;28;20247;-52
2022/09/17 00:51:40;;;;;;;2.65;0.98;;;;;21.90;100089.00;;;;2064931;28;20683;-52
2022/09/17 00:52:49;;;;;;;1.80;0.88;;;;;21.90;100097.00;;;;2060612;28;20857;-52
2022/09/17 00:53:50;;;;;;;3.45;1.15;;;;;21.90;100098.00;;;;2063965;28;20215;-52
2022/09/17 00:54:57;;;;;;;3.10;1.07;;;;;21.80;100092.00;;;;2062836;28;20217;-52
2022/09/17 00:56:04;;;;;;;2.30;0.90;;;;;21.80;100090.00;;;;2068854;28;20358;-52
2022/09/17 00:57:04;;;;;;;2.50;0.93;;;;;21.80;100093.00;;;;2063607;28;20261;-54
2022/09/17 00:58:05;;;;;;;2.27;1.00;;;;;21.90;100077.00;;;;2070003;28;20274;-53
2022/09/17 00:59:06;;;;;;;2.03;0.98;;;;;21.80;100105.00;;;;2079094;28;20208;-52
2022/09/17 01:00:08;;;;;;;2.53;0.93;;;;;21.80;100095.00;;;;2070861;28;20765;-52
2022/09/17 01:01:08;;;;;;;2.83;1.02;;;;;21.90;100094.00;;;;2079064;28;20237;-52
2022/09/17 01:02:08;;;;;;;3.90;1.40;;;;;21.90;100096.00;;;;2079839;28;20221;-52
2022/09/17 01:03:09;;;;;;;2.97;1.20;;;;;21.80;100104.00;;;;2079206;28;20221;-52
2022/09/17 01:04:16;;;;;;;2.77;1.13;;;;;21.90;100104.00;;;;2079099;28;20748;-52
2022/09/17 01:05:17;;;;;;;2.38;1.15;;;;;21.80;100107.00;;;;2075559;28;20213;-52
2022/09/17 01:06:38;;;;;;;2.77;1.10;;;;;21.80;100108.00;;;;2071127;28;20329;-52
2022/09/17 01:07:54;;;;;;;1.92;0.90;;;;;21.80;100125.00;;;;2074783;28;20240;-52
2022/09/17 01:09:29;;;;;;;3.40;0.95;;;;;21.80;100106.00;;;;2077523;28;20209;-53
2022/09/17 01:10:59;;;;;;;6.18;1.40;;;;;21.80;100110.00;;;;2057651;28;20227;-52
2022/09/17 01:12:06;;;;;;;3.65;1.05;;;;;21.80;100102.00;;;;2061232;28;20214;-52
2022/09/17 01:13:10;;;;;;;2.80;1.20;;;;;21.80;100083.00;;;;2068188;28;20297;-55
2022/09/17 01:14:21;;;;;;;2.50;0.93;;;;;21.80;100104.00;;;;2070933;28;20210;-52
2022/09/17 01:15:46;;;;;;;2.47;1.40;;;;;21.80;100104.00;;;;2069205;28;20214;-52
2022/09/17 01:16:51;;;;;;;3.80;1.30;;;;;21.80;100099.00;;;;2074198;28;20213;-52
2022/09/17 01:18:14;;;;;;;3.05;0.90;;;;;21.80;100084.00;;;;2070483;28;20301;-52
2022/09/17 01:19:42;;;;;;;2.42;1.10;;;;;21.80;100102.00;;;;2074200;28;20236;-52
2022/09/17 01:21:24;;;;;;;3.08;1.20;;;;;21.80;100107.00;;;;2079165;28;20229;-52
2022/09/17 01:22:57;;;;;;;3.92;1.45;;;;;21.80;100120.00;;;;2078321;28;20209;-52
2022/09/17 01:24:10;;;;;;;2.85;1.30;;;;;21.80;100102.00;;;;2077913;28;20216;-52
2022/09/17 01:25:27;;;;;;;3.10;1.20;;;;;21.80;100106.00;;;;2072020;28;20321;-52
2022/09/17 01:26:51;;;;;;;2.03;1.10;;;;;21.80;100109.00;;;;2070778;28;20221;-52
2022/09/17 01:28:16;;;;;;;2.88;1.10;;;;;21.80;100113.00;;;;2073247;28;20222;-52
2022/09/17 01:29:31;;;;;;;3.17;1.00;;;;;21.80;100107.00;;;;2079352;28;20249;-52
2022/09/17 01:30:37;;;;;;;3.95;1.05;;;;;21.80;100109.00;;;;2079577;28;20233;-53
2022/09/17 01:31:48;;;;;;;3.13;1.00;;;;;21.80;100108.00;;;;2078988;28;20229;-52
2022/09/17 01:32:53;;;;;;;3.35;1.05;;;;;21.80;100102.00;;;;2078561;28;20220;-52
2022/09/17 01:33:57;;;;;;;2.45;1.15;;;;;21.80;100108.00;;;;2070843;28;20210;-52
2022/09/17 01:35:05;;;;;;;2.67;1.00;;;;;21.70;100111.00;;;;2063580;28;20219;-52
2022/09/17 01:36:29;;;;;;;3.10;1.20;;;;;21.70;100105.00;;;;2069284;28;20606;-52
2022/09/17 01:37:33;;;;;;;3.83;1.17;;;;;21.70;100079.00;;;;2078037;28;20580;-52
2022/09/17 01:38:44;;;;;;;2.30;0.93;;;;;21.70;100116.00;;;;2078650;28;20240;-52
2022/09/17 01:39:48;;;;;;;2.58;1.10;;;;;21.80;100108.00;;;;2072101;28;20667;-52
2022/09/17 01:40:56;;;;;;;4.05;1.30;;;;;21.70;100108.00;;;;2071689;28;20234;-52
2022/09/17 01:42:02;;;;;;;3.33;1.15;;;;;21.70;100113.00;;;;2071590;28;20218;-52
2022/09/17 01:43:23;;;;;;;2.70;1.35;;;;;21.70;100109.00;;;;2078052;28;20219;-52
2022/09/17 01:44:48;;;;;;;2.80;1.10;;;;;21.80;100110.00;;;;2064850;28;20216;-52
2022/09/17 01:46:12;;;;;;;4.70;1.20;;;;;21.70;100114.00;;;;2074245;28;20225;-52
2022/09/17 01:47:23;;;;;;;4.60;1.23;;;;;21.70;100112.00;;;;2077164;28;20300;-53
2022/09/17 01:48:29;;;;;;;3.05;1.10;;;;;21.70;100083.00;;;;2079063;28;20217;-52
2022/09/17 01:49:30;;;;;;;3.45;1.17;;;;;21.70;100101.00;;;;2070782;28;20211;-52
2022/09/17 01:50:36;;;;;;;3.13;0.93;;;;;21.70;100103.00;;;;2070398;28;20229;-52
2022/09/17 01:51:39;;;;;;;4.05;1.48;;;;;21.70;100107.00;;;;2070682;28;20294;-52
2022/09/17 01:52:40;;;;;;;3.38;1.25;;;;;21.70;100106.00;;;;2077703;28;20267;-52
2022/09/17 01:53:45;;;;;;;2.93;1.33;;;;;21.70;100110.00;;;;2069510;28;20217;-52
2022/09/17 01:54:49;;;;;;;3.78;1.42;;;;;21.70;100105.00;;;;2062019;28;20540;-52
2022/09/17 01:55:50;;;;;;;2.92;1.10;;;;;21.70;100113.00;;;;2053441;28;20227;-52
2022/09/17 01:57:08;;;;;;;2.87;0.93;;;;;21.70;100112.00;;;;2062448;28;20683;-52
2022/09/17 01:58:13;;;;;;;2.45;1.08;;;;;21.70;100122.00;;;;2068468;28;20328;-52
2022/09/17 02:00:00;;;;;;;4.25;1.20;;;;;21.70;100108.00;;;;2069576;28;20213;-55
2022/09/17 02:01:02;;;;;;;2.20;0.90;;;;;21.70;100112.00;;;;2075486;28;20271;-52
2022/09/17 02:02:25;;;;;;;2.95;1.10;;;;;21.80;100117.00;;;;2069867;28;20221;-53
2022/09/17 02:03:38;;;;;;;3.00;1.17;;;;;21.70;100123.00;;;;2072470;28;20209;-52
2022/09/17 02:04:57;;;;;;;3.25;0.98;;;;;21.70;100108.00;;;;2071694;28;20222;-52
2022/09/17 02:06:14;;;;;;;2.10;0.93;;;;;21.70;100110.00;;;;2063740;28;20230;-52
2022/09/17 02:07:19;;;;;;;2.28;1.20;;;;;21.70;100123.00;;;;2066131;28;20290;-52
2022/09/17 02:08:21;;;;;;;1.80;0.90;;;;;21.70;100118.00;;;;2068287;28;20249;-53
2022/09/17 02:09:42;;;;;;;2.85;1.08;;;;;21.70;100127.00;;;;2061397;28;20211;-52
2022/09/17 02:10:49;;;;;;;4.35;1.33;;;;;21.70;100109.00;;;;2068996;28;20225;-52
2022/09/17 02:11:55;;;;;;;3.95;1.67;;;;;21.70;100120.00;;;;2062339;28;20222;-52
2022/09/17 02:12:57;;;;;;;4.47;1.60;;;;;21.70;100094.00;;;;2062889;28;20245;-52
2022/09/17 02:13:59;;;;;;;2.80;1.27;;;;;21.70;100124.00;;;;2069911;28;20218;-52
2022/09/17 02:15:01;;;;;;;2.65;1.20;;;;;21.70;100094.00;;;;2067669;28;20218;-52
2022/09/17 02:16:08;;;;;;;6.10;1.77;;;;;21.70;100112.00;;;;2069321;28;20225;-52
2022/09/17 02:17:13;;;;;;;3.05;1.33;;;;;21.70;100125.00;;;;2070476;28;20214;-52
2022/09/17 02:18:16;;;;;;;2.65;1.15;;;;;21.70;100124.00;;;;2068695;28;20587;-52
2022/09/17 02:19:20;;;;;;;4.57;1.67;;;;;21.70;100118.00;;;;2069209;28;20584;-52
2022/09/17 02:20:23;;;;;;;4.25;1.70;;;;;21.70;100123.00;;;;2069006;28;20317;-52
2022/09/17 02:21:46;;;;;;;3.78;1.25;;;;;21.70;100120.00;;;;2058979;28;20230;-52
2022/09/17 02:22:48;;;;;;;6.95;1.55;;;;;21.70;100115.00;;;;2068811;28;20309;-52
2022/09/17 02:24:00;;;;;;;3.20;1.23;;;;;21.70;100123.00;;;;2069350;28;20304;-53
2022/09/17 02:25:05;;;;;;;4.82;1.40;;;;;21.70;100126.00;;;;2069264;28;20218;-52
2022/09/17 02:26:08;;;;;;;3.10;1.30;;;;;21.70;100124.00;;;;2069954;28;20555;-52
2022/09/17 02:27:30;;;;;;;2.15;1.30;;;;;21.70;100124.00;;;;2068959;28;20266;-52
2022/09/17 02:28:40;;;;;;;2.25;0.95;;;;;21.60;100123.00;;;;2066736;28;20261;-52
2022/09/17 02:29:41;;;;;;;6.00;1.70;;;;;21.30;100124.00;;;;2078177;28;20240;-52
2022/09/17 02:30:42;;;;;;;3.13;1.23;;;;;21.70;100118.00;;;;2077803;28;20232;-52
2022/09/17 02:31:42;;;;;;;3.93;1.10;;;;;21.70;100120.00;;;;2069129;28;20654;-52
2022/09/17 02:32:42;;;;;;;3.77;1.13;;;;;21.60;100117.00;;;;2069853;28;20234;-52
2022/09/17 02:33:45;;;;;;;2.57;1.00;;;;;21.60;100129.00;;;;2077207;28;20228;-52
2022/09/17 02:34:46;;;;;;;3.75;1.20;;;;;21.60;100119.00;;;;2061381;28;20588;-52
2022/09/17 02:35:46;;;;;;;3.33;1.43;;;;;21.60;100115.00;;;;2068872;28;20310;-52
2022/09/17 02:36:47;;;;;;;2.27;1.17;;;;;21.60;100111.00;;;;2085345;28;20224;-52
2022/09/17 02:37:47;;;;;;;2.53;1.50;;;;;21.60;100114.00;;;;2074421;28;20245;-52
2022/09/17 02:38:53;;;;;;;4.50;1.40;;;;;21.60;100110.00;;;;2069497;28;20214;-52
2022/09/17 02:39:53;;;;;;;3.80;1.70;;;;;21.60;100118.00;;;;2069262;28;20217;-52
2022/09/17 02:41:10;;;;;;;4.70;1.17;;;;;21.60;100123.00;;;;2070030;28;20257;-52
2022/09/17 02:42:29;;;;;;;3.47;1.60;;;;;21.70;100126.00;;;;2066969;28;20282;-52
2022/09/17 02:43:32;;;;;;;3.20;1.20;;;;;21.70;100130.00;;;;2074353;28;20221;-52
2022/09/17 02:45:03;;;;;;;4.05;1.80;;;;;21.70;100130.00;;;;2079023;28;20221;-52
2022/09/17 02:46:44;;;;;;;5.05;1.58;;;;;21.60;100090.00;;;;2079195;28;20244;-52
2022/09/17 02:47:56;;;;;;;4.93;1.40;;;;;21.60;100126.00;;;;2077460;28;20221;-52
2022/09/17 02:49:13;;;;;;;4.38;1.85;;;;;21.60;100127.00;;;;2078254;28;20221;-52
2022/09/17 02:50:28;;;;;;;4.05;1.65;;;;;21.70;100124.00;;;;2077933;28;20759;-52
2022/09/17 02:51:29;;;;;;;3.78;1.60;;;;;21.70;100122.00;;;;2078143;28;20209;-52
2022/09/17 02:53:00;;;;;;;3.63;1.67;;;;;21.60;100134.00;;;;2079061;28;20218;-52
2022/09/17 02:54:21;;;;;;;3.85;1.38;;;;;21.60;100129.00;;;;2078868;28;20214;-52
2022/09/17 02:55:30;;;;;;;2.45;1.02;;;;;21.60;100132.00;;;;2078312;28;20217;-52
2022/09/17 02:56:39;;;;;;;3.08;1.30;;;;;21.60;100103.00;;;;2078338;28;20209;-52
2022/09/17 02:57:46;;;;;;;2.83;1.40;;;;;21.60;100129.00;;;;2068506;28;20261;-51
2022/09/17 02:59:08;;;;;;;3.35;1.60;;;;;21.60;100133.00;;;;2072051;28;20245;-52
2022/09/17 03:00:13;;;;;;;4.53;1.60;;;;;21.60;100112.00;;;;2078343;28;20668;-52
2022/09/17 03:01:20;;;;;;;4.43;1.67;;;;;21.60;100107.00;;;;2078051;28;20296;-52
2022/09/17 03:02:29;;;;;;;4.10;1.30;;;;;21.70;100117.00;;;;2069969;28;20336;-52
2022/09/17 03:03:34;;;;;;;4.55;1.52;;;;;21.60;100133.00;;;;2064636;28;20588;-52
2022/09/17 03:04:34;;;;;;;2.65;1.20;;;;;21.60;100122.00;;;;2070601;28;20272;-52
2022/09/17 03:05:35;;;;;;;4.23;1.50;;;;;21.60;100114.00;;;;2069799;28;20638;-52
2022/09/17 03:06:37;;;;;;;4.00;1.87;;;;;21.60;100122.00;;;;2069940;28;20210;-52
2022/09/17 03:07:37;;;;;;;3.78;1.35;;;;;21.60;100131.00;;;;2069409;28;20453;-52
2022/09/17 03:08:40;;;;;;;3.17;1.40;;;;;21.60;100129.00;;;;2077421;28;20217;-52
2022/09/17 03:09:42;;;;;;;3.70;1.33;;;;;21.60;100144.00;;;;2062286;28;20274;-52
2022/09/17 03:10:42;;;;;;;3.50;1.60;;;;;21.60;100140.00;;;;2069994;28;20289;-52
2022/09/17 03:11:43;;;;;;;5.83;1.57;;;;;21.60;100133.00;;;;2078906;28;20897;-52
2022/09/17 03:12:43;;;;;;;3.47;1.50;;;;;21.20;100145.00;;;;2078107;28;20241;-52
2022/09/17 03:13:43;;;;;;;3.10;1.20;;;;;21.60;100133.00;;;;2078088;28;20340;-52
2022/09/17 03:14:44;;;;;;;4.40;1.13;;;;;21.60;100147.00;;;;2078747;28;20720;-52
2022/09/17 03:15:44;;;;;;;3.93;1.50;;;;;21.60;100131.00;;;;2078807;28;20701;-52
2022/09/17 03:16:44;;;;;;;3.17;1.50;;;;;21.60;100139.00;;;;2077857;28;20213;-52
2022/09/17 03:17:45;;;;;;;3.43;1.20;;;;;21.60;100142.00;;;;2076553;28;20292;-51
2022/09/17 03:18:45;;;;;;;3.80;1.37;;;;;21.60;100136.00;;;;2078706;28;20263;-52
2022/09/17 03:19:45;;;;;;;3.60;1.20;;;;;21.60;100128.00;;;;2078388;28;20217;-52
2022/09/17 03:20:46;;;;;;;3.50;1.40;;;;;21.60;100127.00;;;;2078120;28;20209;-52
2022/09/17 03:21:46;;;;;;;4.33;1.67;;;;;21.60;100123.00;;;;2078091;28;20259;-52
2022/09/17 03:22:46;;;;;;;2.83;1.13;;;;;21.60;100135.00;;;;2078992;28;20213;-52
2022/09/17 03:23:47;;;;;;;4.00;1.90;;;;;21.60;100136.00;;;;2071966;28;20225;-53
2022/09/17 03:24:47;;;;;;;6.77;2.30;;;;;21.60;100136.00;;;;2070357;28;20226;-52
2022/09/17 03:25:50;;;;;;;6.37;1.80;;;;;21.60;100143.00;;;;2070441;28;20305;-52
2022/09/17 03:26:51;;;;;;;3.90;1.50;;;;;21.60;100137.00;;;;2070721;28;20227;-52
2022/09/17 03:27:52;;;;;;;3.57;1.27;;;;;21.60;100049.00;;;;2072571;28;20232;-52
2022/09/17 03:28:52;;;;;;;3.73;1.03;;;;;21.60;100128.00;;;;2076609;28;20883;-52
2022/09/17 03:29:52;;;;;;;4.10;1.70;;;;;21.60;100164.00;;;;2077703;28;20591;-52
2022/09/17 03:30:53;;;;;;;3.23;1.20;;;;;21.60;100127.00;;;;2077586;28;20553;-52
2022/09/17 03:31:53;;;;;;;5.80;1.30;;;;;21.60;100118.00;;;;2075538;28;20721;-52
2022/09/17 03:32:53;;;;;;;2.20;1.10;;;;;21.60;100126.00;;;;2077356;28;20214;-52
2022/09/17 03:33:54;;;;;;;4.00;1.47;;;;;21.60;100124.00;;;;2076619;28;20213;-52
2022/09/17 03:34:54;;;;;;;2.47;1.67;;;;;21.60;100130.00;;;;2078764;28;20224;-52
2022/09/17 03:35:54;;;;;;;2.57;1.10;;;;;21.60;100127.00;;;;2078666;28;20237;-52
2022/09/17 03:36:55;;;;;;;3.43;1.47;;;;;21.60;100126.00;;;;2078057;28;20217;-52
2022/09/17 03:37:56;;;;;;;4.87;1.50;;;;;21.60;100131.00;;;;2077202;28;20257;-52
2022/09/17 03:38:56;;;;;;;4.03;1.30;;;;;21.60;100135.00;;;;2077272;28;20240;-52
2022/09/17 03:39:56;;;;;;;2.20;1.23;;;;;21.60;100137.00;;;;2077872;28;20476;-52
2022/09/17 03:41:06;;;;;;;3.17;1.43;;;;;21.60;100133.00;;;;2077902;28;20216;-52
2022/09/17 03:42:06;;;;;;;4.35;1.50;;;;;21.60;100134.00;;;;2078101;28;20232;-52
2022/09/17 03:43:07;;;;;;;3.70;1.70;;;;;21.60;100147.00;;;;2076352;28;20217;-52
2022/09/17 03:44:09;;;;;;;3.40;1.37;;;;;21.60;100131.00;;;;2077589;28;20224;-52
2022/09/17 03:45:09;;;;;;;5.40;1.73;;;;;21.60;100130.00;;;;2077000;28;21153;-52
2022/09/17 03:46:10;;;;;;;5.53;1.87;;;;;21.60;100140.00;;;;2075443;28;20221;-53
2022/09/17 03:47:11;;;;;;;3.93;1.60;;;;;21.60;100147.00;;;;2078729;28;20351;-52
2022/09/17 03:48:11;;;;;;;5.25;1.70;;;;;21.60;100146.00;;;;2076359;28;20218;-52
2022/09/17 03:49:12;;;;;;;3.60;1.50;;;;;21.50;100141.00;;;;2078552;28;20312;-52
2022/09/17 03:50:12;;;;;;;3.87;1.40;;;;;21.50;100144.00;;;;2073506;28;20222;-52
2022/09/17 03:51:12;;;;;;;2.27;0.90;;;;;21.50;100149.00;;;;2070471;28;20210;-52
2022/09/17 03:52:13;;;;;;;3.90;1.50;;;;;21.60;100143.00;;;;2070310;28;20234;-52
2022/09/17 03:53:13;;;;;;;6.10;1.47;;;;;21.50;100147.00;;;;2068999;28;20215;-52
2022/09/17 03:54:13;;;;;;;4.13;1.43;;;;;21.60;100143.00;;;;2070429;28;20210;-52
2022/09/17 03:55:15;;;;;;;3.33;1.37;;;;;21.50;100164.00;;;;2069970;28;20217;-52
2022/09/17 03:56:16;;;;;;;2.67;1.30;;;;;21.60;100150.00;;;;2070006;28;20226;-52
2022/09/17 03:57:16;;;;;;;3.97;1.40;;;;;21.50;100152.00;;;;2069320;28;20228;-52
2022/09/17 03:58:17;;;;;;;2.60;1.47;;;;;21.50;100146.00;;;;2071626;28;20694;-52
2022/09/17 03:59:17;;;;;;;6.23;1.23;;;;;21.50;100148.00;;;;2072451;28;20277;-52
2022/09/17 04:00:19;;;;;;;5.80;1.83;;;;;21.60;100144.00;;;;2070519;28;20207;-52
2022/09/17 04:01:19;;;;;;;4.10;1.40;;;;;21.60;100148.00;;;;2069404;28;20681;-52
2022/09/17 04:02:19;;;;;;;4.13;1.50;;;;;21.50;100154.00;;;;2070408;28;20240;-52
2022/09/17 04:03:20;;;;;;;6.43;2.37;;;;;21.50;100149.00;;;;2070561;28;20229;-52
2022/09/17 04:04:20;;;;;;;4.63;1.60;;;;;21.60;100143.00;;;;2070002;28;20208;-52
2022/09/17 04:05:21;;;;;;;3.50;1.40;;;;;21.60;100148.00;;;;2070364;28;20210;-52
2022/09/17 04:06:21;;;;;;;3.47;1.37;;;;;21.60;100136.00;;;;2070005;28;20205;-52
2022/09/17 04:07:21;;;;;;;4.27;1.60;;;;;21.50;100152.00;;;;2060867;28;20809;-52
2022/09/17 04:08:22;;;;;;;3.90;1.50;;;;;21.50;100150.00;;;;2069738;28;20685;-52
2022/09/17 04:09:22;;;;;;;3.57;1.23;;;;;21.50;100144.00;;;;2070533;28;20214;-52
2022/09/17 04:10:22;;;;;;;3.67;1.30;;;;;21.50;100151.00;;;;2070447;28;20268;-52
2022/09/17 04:11:23;;;;;;;4.57;1.83;;;;;21.50;100149.00;;;;2070363;28;20217;-52
2022/09/17 04:12:23;;;;;;;3.00;1.20;;;;;21.50;100155.00;;;;2070580;28;20214;-52
2022/09/17 04:13:23;;;;;;;2.50;1.17;;;;;21.50;100157.00;;;;2070609;28;20237;-52
2022/09/17 04:14:24;;;;;;;2.70;1.17;;;;;21.50;100153.00;;;;2070539;28;20206;-52
2022/09/17 04:15:24;;;;;;;5.70;1.90;;;;;21.50;100152.00;;;;2070268;28;20217;-52
2022/09/17 04:16:24;;;;;;;4.07;1.40;;;;;21.50;100155.00;;;;2070455;28;20222;-52
2022/09/17 04:17:25;;;;;;;5.60;2.03;;;;;21.50;100146.00;;;;2068526;28;20217;-52
2022/09/17 04:18:25;;;;;;;3.87;1.60;;;;;21.50;100150.00;;;;2070431;28;20229;-52
2022/09/17 04:19:25;;;;;;;3.90;1.53;;;;;21.50;100150.00;;;;2070591;28;20545;-52
2022/09/17 04:20:26;;;;;;;3.53;1.33;;;;;21.50;100146.00;;;;2070174;28;20229;-52
2022/09/17 04:21:27;;;;;;;3.25;1.20;;;;;21.50;100155.00;;;;2070342;28;20256;-52
2022/09/17 04:22:27;;;;;;;3.77;1.47;;;;;21.50;100144.00;;;;2070654;28;20267;-52
2022/09/17 04:23:27;;;;;;;3.90;1.50;;;;;21.50;100150.00;;;;2070390;28;20275;-52
2022/09/17 04:24:28;;;;;;;3.73;1.33;;;;;21.50;100153.00;;;;2072396;28;20225;-52
2022/09/17 04:25:29;;;;;;;3.00;1.30;;;;;21.50;100150.00;;;;2078434;28;20257;-50
2022/09/17 04:26:29;;;;;;;4.40;1.60;;;;;21.50;100157.00;;;;2078588;28;20224;-50
2022/09/17 04:27:29;;;;;;;4.07;1.50;;;;;21.50;100149.00;;;;2077400;28;20635;-50
2022/09/17 04:28:30;;;;;;;3.63;1.50;;;;;21.50;100004.00;;;;2077744;28;20809;-50
2022/09/17 04:29:30;;;;;;;3.47;1.37;;;;;21.50;100150.00;;;;2071537;28;20584;-50
2022/09/17 04:30:30;;;;;;;4.17;1.40;;;;;21.50;100160.00;;;;2070347;28;20373;-50
2022/09/17 04:31:31;;;;;;;4.30;1.40;;;;;21.50;100132.00;;;;2070248;28;20272;-50
2022/09/17 04:32:31;;;;;;;4.27;1.40;;;;;21.50;100007.00;;;;2070549;28;20612;-50
2022/09/17 04:33:32;;;;;;;3.80;1.20;;;;;21.50;100151.00;;;;2068681;28;20753;-52
2022/09/17 04:34:32;;;;;;;3.40;1.40;;;;;21.50;100156.00;;;;2070086;28;20772;-52
2022/09/17 04:35:32;;;;;;;4.50;1.40;;;;;21.50;100153.00;;;;2070213;28;20218;-52
2022/09/17 04:36:33;;;;;;;5.93;1.43;;;;;21.50;100167.00;;;;2071726;28;20249;-52
2022/09/17 04:37:33;;;;;;;3.97;1.50;;;;;21.50;100165.00;;;;2077480;28;20225;-52
2022/09/17 04:38:33;;;;;;;4.30;1.20;;;;;21.50;100154.00;;;;2077198;28;20240;-52
2022/09/17 04:39:34;;;;;;;2.60;1.30;;;;;21.50;100157.00;;;;2078405;28;20304;-52
2022/09/17 04:40:34;;;;;;;4.03;1.30;;;;;21.50;100158.00;;;;2078332;28;20275;-52
2022/09/17 04:41:35;;;;;;;3.30;1.30;;;;;21.50;100156.00;;;;2078164;28;20813;-52
2022/09/17 04:42:35;;;;;;;3.83;1.10;;;;;21.50;100160.00;;;;2078495;28;20245;-52
2022/09/17 04:43:35;;;;;;;4.33;1.37;;;;;21.50;100157.00;;;;2078873;28;20227;-52
2022/09/17 04:44:36;;;;;;;3.33;1.50;;;;;21.50;100159.00;;;;2080038;28;20212;-52
2022/09/17 04:45:36;;;;;;;4.23;1.60;;;;;21.50;100149.00;;;;2079379;28;20213;-52
2022/09/17 04:46:36;;;;;;;3.13;1.30;;;;;21.50;100157.00;;;;2079970;28;20804;-52
2022/09/17 04:47:38;;;;;;;2.80;1.50;;;;;21.50;100153.00;;;;2079169;28;20205;-52
2022/09/17 04:48:38;;;;;;;4.05;1.40;;;;;21.50;100157.00;;;;2080198;28;20236;-52
2022/09/17 04:49:39;;;;;;;4.30;1.60;;;;;21.50;100157.00;;;;2080069;28;20670;-52
2022/09/17 04:50:39;;;;;;;4.90;1.67;;;;;21.50;100158.00;;;;2078903;28;21338;-52
2022/09/17 04:51:39;;;;;;;4.27;1.47;;;;;21.50;100165.00;;;;2079913;28;21004;-52
2022/09/17 04:52:43;;;;;;;3.30;1.53;;;;;21.50;100160.00;;;;2079831;28;20689;-52
2022/09/17 04:53:44;;;;;;;4.03;1.45;;;;;21.50;100166.00;;;;2077718;28;20209;-53
2022/09/17 04:54:44;;;;;;;4.22;1.45;;;;;21.50;100155.00;;;;2071028;28;20202;-53
2022/09/17 04:55:45;;;;;;;2.27;1.30;;;;;21.50;100164.00;;;;2070848;28;20210;-53
2022/09/17 04:56:45;;;;;;;4.07;1.90;;;;;21.50;100168.00;;;;2073844;28;20201;-52
2022/09/17 04:57:47;;;;;;;3.00;1.50;;;;;21.50;100162.00;;;;2079067;28;20212;-52
2022/09/17 04:58:47;;;;;;;5.18;1.80;;;;;21.50;100159.00;;;;2079980;28;20206;-52
2022/09/17 04:59:47;;;;;;;3.90;1.60;;;;;21.50;100169.00;;;;2079965;28;20232;-52
2022/09/17 05:00:48;;;;;;;4.17;1.40;;;;;21.50;100175.00;;;;2079881;28;20206;-52
2022/09/17 05:01:48;;;;;;;3.73;1.40;;;;;21.50;100171.00;;;;2079542;28;20209;-52
2022/09/17 05:02:50;;;;;;;6.10;1.50;;;;;21.50;100165.00;;;;2079923;28;20205;-52
2022/09/17 05:03:50;;;;;;;2.88;1.40;;;;;21.50;100175.00;;;;2079383;28;20260;-53
2022/09/17 05:04:51;;;;;;;2.63;1.43;;;;;21.50;100169.00;;;;2069459;28;20249;-53
2022/09/17 05:05:51;;;;;;;4.53;1.57;;;;;21.50;100177.00;;;;2073280;28;20272;-52
2022/09/17 05:06:52;;;;;;;4.33;1.80;;;;;21.50;100170.00;;;;2079723;28;20218;-52
2022/09/17 05:07:52;;;;;;;4.83;1.60;;;;;21.50;100174.00;;;;2078915;28;20230;-52
2022/09/17 05:08:52;;;;;;;3.90;1.73;;;;;21.50;100162.00;;;;2072004;28;20229;-52
2022/09/17 05:09:52;;;;;;;4.33;1.60;;;;;21.50;100171.00;;;;2071840;28;20206;-52
2022/09/17 05:10:53;;;;;;;3.20;1.33;;;;;21.50;100175.00;;;;2071414;28;20271;-52
2022/09/17 05:11:53;;;;;;;3.37;1.27;;;;;21.50;100153.00;;;;2071566;28;20215;-52
2022/09/17 05:12:54;;;;;;;3.73;1.27;;;;;21.50;100177.00;;;;2071240;28;20203;-52
2022/09/17 05:13:54;;;;;;;3.20;1.30;;;;;21.50;100182.00;;;;2071008;28;20293;-52
2022/09/17 05:14:55;;;;;;;3.60;1.20;;;;;21.50;100179.00;;;;2070992;28;20203;-52
2022/09/17 05:15:55;;;;;;;2.10;1.20;;;;;21.50;100188.00;;;;2067561;28;20365;-52
2022/09/17 05:16:55;;;;;;;6.73;1.60;;;;;21.40;100178.00;;;;2071318;28;20231;-52
2022/09/17 05:17:56;;;;;;;3.40;1.20;;;;;21.40;100191.00;;;;2069329;28;20276;-52
2022/09/17 05:18:56;;;;;;;3.83;1.43;;;;;21.40;100193.00;;;;2070729;28;20221;-52
2022/09/17 05:19:57;;;;;;;3.60;1.47;;;;;21.40;100190.00;;;;2070980;28;20259;-52